createdAt,value
2023-03-29T00:00:14.648Z,0.4216
2023-03-29T00:01:35.051Z,0.4258
2023-03-29T00:02:17.918Z,0.4297
2023-03-29T00:03:19.729Z,0.4313
2023-03-29T00:04:21.226Z,0.4382
2023-03-29T00:05:22.853Z,0.4391
2023-03-29T00:06:24.532Z,0.4487
2023-03-29T00:07:26.183Z,0.4564
2023-03-29T00:08:27.836Z,0.4477
2023-03-29T00:09:29.484Z,0.4429
2023-03-29T00:10:31.120Z,0.4444
2023-03-29T00:11:32.800Z,0.4361
2023-03-29T00:12:34.428Z,0.4349
2023-03-29T00:13:36.128Z,0.4396
2023-03-29T00:14:37.734Z,0.4425
2023-03-29T00:15:39.405Z,0.4377
2023-03-29T00:16:41.071Z,0.4373
2023-03-29T00:17:42.767Z,0.4368
2023-03-29T00:18:44.385Z,0.4326
2023-03-29T00:19:46.023Z,0.4256
2023-03-29T00:20:47.666Z,0.4185
2023-03-29T00:21:49.322Z,0.4141
2023-03-29T00:22:50.967Z,0.4113
2023-03-29T00:23:52.670Z,0.4105
2023-03-29T00:24:54.319Z,0.4127
2023-03-29T00:25:55.957Z,0.4112
2023-03-29T00:26:57.610Z,0.4188
2023-03-29T00:27:59.268Z,0.4244
2023-03-29T00:29:00.943Z,0.4299
2023-03-29T00:30:02.570Z,0.4297
2023-03-29T00:31:04.430Z,0.4355
2023-03-29T00:32:05.877Z,0.4370
2023-03-29T00:33:07.554Z,0.4298
2023-03-29T00:34:09.199Z,0.4342
2023-03-29T00:35:10.825Z,0.4321
2023-03-29T00:36:12.497Z,0.4273
2023-03-29T00:37:14.112Z,0.4290
2023-03-29T00:38:15.798Z,0.4227
2023-03-29T00:39:17.449Z,0.4237
2023-03-29T00:40:19.099Z,0.4245
2023-03-29T00:41:20.734Z,0.4263
2023-03-29T00:42:22.407Z,0.4277
2023-03-29T00:43:24.041Z,0.4266
2023-03-29T00:44:25.744Z,0.4226
2023-03-29T00:45:27.354Z,0.4168
2023-03-29T00:46:29.108Z,0.4284
2023-03-29T00:47:30.671Z,0.4399
2023-03-29T00:48:32.383Z,0.4407
2023-03-29T00:49:33.994Z,0.4363
2023-03-29T00:50:35.647Z,0.4330
2023-03-29T00:51:37.291Z,0.4367
2023-03-29T00:52:38.950Z,0.4387
2023-03-29T00:53:40.580Z,0.4419
2023-03-29T00:54:42.294Z,0.4451
2023-03-29T00:55:43.895Z,0.4442
2023-03-29T00:56:45.578Z,0.4416
2023-03-29T00:57:47.200Z,0.4354
2023-03-29T00:58:48.871Z,0.4297
2023-03-29T00:59:50.579Z,0.4231
2023-03-29T01:00:52.206Z,0.4235
2023-03-29T01:01:53.871Z,0.4271
2023-03-29T01:02:55.538Z,0.4263
2023-03-29T01:03:57.154Z,0.4201
2023-03-29T01:04:58.817Z,0.4213
2023-03-29T01:06:00.462Z,0.4280
2023-03-29T01:07:02.159Z,0.4310
2023-03-29T01:08:03.757Z,0.4422
2023-03-29T01:09:05.419Z,0.4471
2023-03-29T01:10:07.085Z,0.4485
2023-03-29T01:11:08.735Z,0.4475
2023-03-29T01:12:10.388Z,0.4421
2023-03-29T01:13:12.043Z,0.4336
2023-03-29T01:14:13.684Z,0.4330
2023-03-29T01:15:15.398Z,0.4374
2023-03-29T01:16:17.094Z,0.4383
2023-03-29T01:17:18.683Z,0.4369
2023-03-29T01:18:20.307Z,0.4294
2023-03-29T01:19:21.977Z,0.4288
2023-03-29T01:20:23.635Z,0.4263
2023-03-29T01:21:25.285Z,0.4210
2023-03-29T01:22:26.931Z,0.4217
2023-03-29T01:23:28.599Z,0.4170
2023-03-29T01:24:30.225Z,0.4176
2023-03-29T01:25:31.918Z,0.4238
2023-03-29T01:26:33.540Z,0.4205
2023-03-29T01:27:35.208Z,0.4188
2023-03-29T01:28:36.847Z,0.4233
2023-03-29T01:29:38.507Z,0.4270
2023-03-29T01:30:40.173Z,0.4317
2023-03-29T01:31:41.902Z,0.4340
2023-03-29T01:32:43.450Z,0.4312
2023-03-29T01:33:45.142Z,0.4334
2023-03-29T01:34:46.802Z,0.4294
2023-03-29T01:35:48.521Z,0.4242
2023-03-29T01:36:50.073Z,0.4212
2023-03-29T01:37:51.760Z,0.4228
2023-03-29T01:38:53.401Z,0.4270
2023-03-29T01:39:55.061Z,0.4279
2023-03-29T01:40:56.722Z,0.4273
2023-03-29T01:41:58.367Z,0.4224
2023-03-29T01:43:00.024Z,0.4189
2023-03-29T01:44:01.692Z,0.4265
2023-03-29T01:45:03.325Z,0.4195
2023-03-29T01:46:05.454Z,0.4173
2023-03-29T01:47:06.630Z,0.4160
2023-03-29T01:48:08.303Z,0.4228
2023-03-29T01:49:09.950Z,0.4261
2023-03-29T01:50:11.620Z,0.4216
2023-03-29T01:51:13.316Z,0.4120
2023-03-29T01:52:14.941Z,0.4090
2023-03-29T01:53:16.572Z,0.4142
2023-03-29T01:54:18.245Z,0.4224
2023-03-29T01:55:19.879Z,0.4261
2023-03-29T01:56:21.571Z,0.4218
2023-03-29T01:57:23.276Z,0.4273
2023-03-29T01:58:24.861Z,0.4342
2023-03-29T01:59:26.500Z,0.4404
2023-03-29T02:00:28.152Z,0.4384
2023-03-29T02:01:29.841Z,0.4455
2023-03-29T02:02:31.560Z,0.4547
2023-03-29T02:03:33.199Z,0.4559
2023-03-29T02:04:34.796Z,0.4598
2023-03-29T02:05:36.409Z,0.4567
2023-03-29T02:06:38.100Z,0.4602
2023-03-29T02:07:39.713Z,0.4599
2023-03-29T02:08:41.386Z,0.4650
2023-03-29T02:09:43.022Z,0.4714
2023-03-29T02:10:44.692Z,0.4654
2023-03-29T02:11:46.353Z,0.4587
2023-03-29T02:12:48.001Z,0.4547
2023-03-29T02:13:49.641Z,0.4533
2023-03-29T02:14:51.304Z,0.4526
2023-03-29T02:15:53.117Z,0.4458
2023-03-29T02:16:54.633Z,0.4439
2023-03-29T02:17:56.262Z,0.4447
2023-03-29T02:18:57.933Z,0.4446
2023-03-29T02:19:59.549Z,0.4437
2023-03-29T02:21:01.441Z,0.4415
2023-03-29T02:22:02.892Z,0.4364
2023-03-29T02:23:04.537Z,0.4280
2023-03-29T02:24:06.156Z,0.4269
2023-03-29T02:25:07.841Z,0.4319
2023-03-29T02:26:09.460Z,0.4313
2023-03-29T02:27:11.178Z,0.4316
2023-03-29T02:28:12.781Z,0.4328
2023-03-29T02:29:14.446Z,0.4282
2023-03-29T02:30:16.083Z,0.4359
2023-03-29T02:31:17.788Z,0.4463
2023-03-29T02:32:19.405Z,0.4616
2023-03-29T02:33:21.048Z,0.4622
2023-03-29T02:34:22.756Z,0.4492
2023-03-29T02:35:24.359Z,0.4419
2023-03-29T02:36:25.987Z,0.4362
2023-03-29T02:37:27.686Z,0.4368
2023-03-29T02:38:29.303Z,0.4385
2023-03-29T02:39:30.972Z,0.4446
2023-03-29T02:40:32.609Z,0.4369
2023-03-29T02:41:34.262Z,0.4302
2023-03-29T02:42:35.949Z,0.4297
2023-03-29T02:43:37.572Z,0.4305
2023-03-29T02:44:39.278Z,0.4243
2023-03-29T02:45:40.936Z,0.4289
2023-03-29T02:46:42.691Z,0.4353
2023-03-29T02:47:44.364Z,0.4260
2023-03-29T02:48:45.887Z,0.4234
2023-03-29T02:49:50.343Z,0.4263
2023-03-29T02:50:49.215Z,0.4334
2023-03-29T02:51:50.844Z,0.4316
2023-03-29T02:52:52.562Z,0.4319
2023-03-29T02:53:54.148Z,0.4305
2023-03-29T02:54:55.829Z,0.4338
2023-03-29T02:55:57.449Z,0.4335
2023-03-29T02:56:59.160Z,0.4340
2023-03-29T02:58:00.780Z,0.4402
2023-03-29T02:59:02.433Z,0.4466
2023-03-29T03:00:04.075Z,0.4526
2023-03-29T03:01:05.730Z,0.4492
2023-03-29T03:02:07.435Z,0.4406
2023-03-29T03:03:09.214Z,0.4440
2023-03-29T03:04:10.749Z,0.4429
2023-03-29T03:05:12.352Z,0.4417
2023-03-29T03:06:14.931Z,0.4377
2023-03-29T03:07:15.663Z,0.4346
2023-03-29T03:08:17.304Z,0.4343
2023-03-29T03:09:18.949Z,0.4375
2023-03-29T03:10:20.601Z,0.4328
2023-03-29T03:11:22.260Z,0.4326
2023-03-29T03:12:23.902Z,0.4357
2023-03-29T03:13:25.590Z,0.4441
2023-03-29T03:14:27.209Z,0.4563
2023-03-29T03:15:28.875Z,0.4579
2023-03-29T03:16:30.588Z,0.4502
2023-03-29T03:17:32.195Z,0.4512
2023-03-29T03:18:33.998Z,0.4544
2023-03-29T03:19:35.485Z,0.4546
2023-03-29T03:20:37.095Z,0.4531
2023-03-29T03:21:38.786Z,0.4523
2023-03-29T03:22:40.420Z,0.4461
2023-03-29T03:23:42.123Z,0.4470
2023-03-29T03:24:43.704Z,0.4536
2023-03-29T03:25:45.366Z,0.4587
2023-03-29T03:26:47.016Z,0.4676
2023-03-29T03:27:48.691Z,0.4689
2023-03-29T03:28:50.351Z,0.4695
2023-03-29T03:29:51.982Z,0.4657
2023-03-29T03:30:53.640Z,0.4660
2023-03-29T03:31:55.310Z,0.4566
2023-03-29T03:32:56.953Z,0.4549
2023-03-29T03:33:58.594Z,0.4615
2023-03-29T03:35:00.216Z,0.4631
2023-03-29T03:36:01.983Z,0.4595
2023-03-29T03:37:03.522Z,0.4583
2023-03-29T03:38:05.195Z,0.4504
2023-03-29T03:39:06.841Z,0.4484
2023-03-29T03:40:08.495Z,0.4464
2023-03-29T03:41:10.133Z,0.4431
2023-03-29T03:42:11.804Z,0.4465
2023-03-29T03:43:13.434Z,0.4549
2023-03-29T03:44:15.134Z,0.4526
2023-03-29T03:45:16.745Z,0.4489
2023-03-29T03:46:18.500Z,0.4457
2023-03-29T03:47:20.046Z,0.4446
2023-03-29T03:48:21.726Z,0.4500
2023-03-29T03:49:23.408Z,0.4493
2023-03-29T03:50:25.024Z,0.4519
2023-03-29T03:51:26.666Z,0.4521
2023-03-29T03:52:28.336Z,0.4523
2023-03-29T03:53:29.973Z,0.4503
2023-03-29T03:54:31.664Z,0.4498
2023-03-29T03:55:33.309Z,0.4554
2023-03-29T03:56:34.964Z,0.4683
2023-03-29T03:57:36.584Z,0.4754
2023-03-29T03:58:38.254Z,0.4798
2023-03-29T03:59:39.919Z,0.4795
2023-03-29T04:00:41.563Z,0.4756
2023-03-29T04:01:43.208Z,0.4693
2023-03-29T04:02:44.904Z,0.4580
2023-03-29T04:03:46.543Z,0.4546
2023-03-29T04:04:48.188Z,0.4571
2023-03-29T04:05:49.812Z,0.4553
2023-03-29T04:06:51.497Z,0.4517
2023-03-29T04:07:53.121Z,0.4593
2023-03-29T04:08:54.792Z,0.4619
2023-03-29T04:09:56.462Z,0.4677
2023-03-29T04:10:58.107Z,0.4747
2023-03-29T04:11:59.745Z,0.4698
2023-03-29T04:13:01.462Z,0.4607
2023-03-29T04:14:03.056Z,0.4611
2023-03-29T04:15:04.748Z,0.4540
2023-03-29T04:16:06.392Z,0.4498
2023-03-29T04:17:08.052Z,0.4368
2023-03-29T04:18:09.757Z,0.4310
2023-03-29T04:19:11.349Z,0.4389
2023-03-29T04:20:13.015Z,0.4398
2023-03-29T04:21:14.648Z,0.4372
2023-03-29T04:22:16.284Z,0.4359
2023-03-29T04:23:17.975Z,0.4322
2023-03-29T04:24:19.604Z,0.4375
2023-03-29T04:25:21.294Z,0.4347
2023-03-29T04:26:22.915Z,0.4294
2023-03-29T04:27:24.565Z,0.4347
2023-03-29T04:28:26.253Z,0.4322
2023-03-29T04:29:27.853Z,0.4272
2023-03-29T04:30:29.546Z,0.4276
2023-03-29T04:31:31.272Z,0.4293
2023-03-29T04:32:32.855Z,0.4190
2023-03-29T04:33:34.472Z,0.4189
2023-03-29T04:34:36.140Z,0.4120
2023-03-29T04:35:37.851Z,0.4158
2023-03-29T04:36:39.453Z,0.4209
2023-03-29T04:37:41.078Z,0.4231
2023-03-29T04:38:46.097Z,0.4259
2023-03-29T04:39:44.380Z,0.4273
2023-03-29T04:40:46.072Z,0.4346
2023-03-29T04:41:47.687Z,0.4312
2023-03-29T04:42:49.365Z,0.4348
2023-03-29T04:43:51.000Z,0.4407
2023-03-29T04:44:52.698Z,0.4449
2023-03-29T04:45:54.379Z,0.4433
2023-03-29T04:46:55.992Z,0.4543
2023-03-29T04:47:57.663Z,0.4570
2023-03-29T04:48:59.317Z,0.4612
2023-03-29T04:50:00.912Z,0.4711
2023-03-29T04:51:02.777Z,0.4790
2023-03-29T04:52:04.226Z,0.4853
2023-03-29T04:53:05.896Z,0.4875
2023-03-29T04:54:07.530Z,0.4906
2023-03-29T04:55:09.232Z,0.4929
2023-03-29T04:56:10.858Z,0.4987
2023-03-29T04:57:12.559Z,0.5048
2023-03-29T04:58:14.121Z,0.5158
2023-03-29T04:59:15.795Z,0.5158
2023-03-29T05:00:17.463Z,0.5261
2023-03-29T05:01:19.171Z,0.5215
2023-03-29T05:02:20.736Z,0.5148
2023-03-29T05:03:22.418Z,0.5119
2023-03-29T05:04:24.065Z,0.5158
2023-03-29T05:05:25.732Z,0.5108
2023-03-29T05:06:27.376Z,0.5114
2023-03-29T05:07:29.085Z,0.5185
2023-03-29T05:08:30.664Z,0.5187
2023-03-29T05:09:35.037Z,0.5194
2023-03-29T05:10:33.977Z,0.5168
2023-03-29T05:11:35.678Z,0.5261
2023-03-29T05:12:37.285Z,0.5214
2023-03-29T05:13:38.937Z,0.5205
2023-03-29T05:14:40.589Z,0.5244
2023-03-29T05:15:42.267Z,0.5249
2023-03-29T05:16:43.999Z,0.5448
2023-03-29T05:17:45.576Z,0.5410
2023-03-29T05:18:47.214Z,0.5340
2023-03-29T05:19:48.883Z,0.5304
2023-03-29T05:20:50.535Z,0.5216
2023-03-29T05:21:52.219Z,0.5175
2023-03-29T05:22:53.858Z,0.5113
2023-03-29T05:23:55.503Z,0.5008
2023-03-29T05:24:57.135Z,0.4954
2023-03-29T05:25:58.808Z,0.4945
2023-03-29T05:27:00.468Z,0.5033
2023-03-29T05:28:02.112Z,0.5009
2023-03-29T05:29:03.749Z,0.5005
2023-03-29T05:30:05.422Z,0.5103
2023-03-29T05:31:07.068Z,0.5192
2023-03-29T05:32:08.857Z,0.5141
2023-03-29T05:33:10.405Z,0.5080
2023-03-29T05:34:12.032Z,0.5054
2023-03-29T05:35:13.661Z,0.5115
2023-03-29T05:36:15.408Z,0.5143
2023-03-29T05:37:17.024Z,0.5150
2023-03-29T05:38:18.648Z,0.5060
2023-03-29T05:39:20.283Z,0.5193
2023-03-29T05:40:21.966Z,0.5227
2023-03-29T05:41:23.622Z,0.5314
2023-03-29T05:42:25.283Z,0.5249
2023-03-29T05:43:26.898Z,0.5274
2023-03-29T05:44:28.581Z,0.5248
2023-03-29T05:45:30.276Z,0.5207
2023-03-29T05:46:31.896Z,0.5288
2023-03-29T05:47:33.637Z,0.5287
2023-03-29T05:48:35.303Z,0.5387
2023-03-29T05:49:36.852Z,0.5570
2023-03-29T05:50:38.476Z,0.5583
2023-03-29T05:51:40.145Z,0.5695
2023-03-29T05:52:41.810Z,0.5737
2023-03-29T05:53:43.466Z,0.5738
2023-03-29T05:54:45.135Z,0.5738
2023-03-29T05:55:46.782Z,0.5750
2023-03-29T05:56:48.456Z,0.5738
2023-03-29T05:57:50.106Z,0.5637
2023-03-29T05:58:53.657Z,0.5560
2023-03-29T05:59:53.411Z,0.5589
2023-03-29T06:00:55.010Z,0.5663
2023-03-29T06:01:56.734Z,0.5658
2023-03-29T06:03:03.780Z,0.5599
2023-03-29T06:04:00.102Z,0.5551
2023-03-29T06:05:01.657Z,0.5532
2023-03-29T06:06:03.310Z,0.5633
2023-03-29T06:07:04.934Z,0.5551
2023-03-29T06:08:06.631Z,0.5554
2023-03-29T06:09:08.250Z,0.5696
2023-03-29T06:10:09.918Z,0.5789
2023-03-29T06:11:11.543Z,0.5771
2023-03-29T06:12:13.216Z,0.5824
2023-03-29T06:13:14.878Z,0.5758
2023-03-29T06:14:16.516Z,0.5709
2023-03-29T06:15:18.156Z,0.5732
2023-03-29T06:16:19.839Z,0.5610
2023-03-29T06:17:21.457Z,0.5556
2023-03-29T06:18:23.180Z,0.5458
2023-03-29T06:19:24.764Z,0.5463
2023-03-29T06:20:26.447Z,0.5491
2023-03-29T06:21:28.063Z,0.5438
2023-03-29T06:22:29.754Z,0.5514
2023-03-29T06:23:31.411Z,0.5547
2023-03-29T06:24:33.044Z,0.5518
2023-03-29T06:25:34.699Z,0.5398
2023-03-29T06:26:36.349Z,0.5289
2023-03-29T06:27:38.008Z,0.5217
2023-03-29T06:28:39.702Z,0.5204
2023-03-29T06:29:41.298Z,0.5437
2023-03-29T06:30:42.962Z,0.5441
2023-03-29T06:31:44.668Z,0.5507
2023-03-29T06:32:46.332Z,0.5589
2023-03-29T06:33:47.931Z,0.5505
2023-03-29T06:34:49.600Z,0.5446
2023-03-29T06:35:51.305Z,0.5435
2023-03-29T06:36:52.888Z,0.5336
2023-03-29T06:37:54.562Z,0.5324
2023-03-29T06:38:56.240Z,0.5299
2023-03-29T06:39:57.841Z,0.5286
2023-03-29T06:40:59.610Z,0.5335
2023-03-29T06:42:10.057Z,0.5349
2023-03-29T06:43:02.804Z,0.5423
2023-03-29T06:44:04.450Z,0.5309
2023-03-29T06:45:06.138Z,0.5270
2023-03-29T06:46:07.790Z,0.5228
2023-03-29T06:47:09.528Z,0.5160
2023-03-29T06:48:11.171Z,0.5160
2023-03-29T06:49:12.869Z,0.5259
2023-03-29T06:50:14.445Z,0.5283
2023-03-29T06:51:16.118Z,0.5366
2023-03-29T06:52:17.744Z,0.5387
2023-03-29T06:53:19.415Z,0.5445
2023-03-29T06:54:21.142Z,0.5528
2023-03-29T06:55:22.721Z,0.5453
2023-03-29T06:56:24.370Z,0.5437
2023-03-29T06:57:26.177Z,0.5549
2023-03-29T06:58:27.662Z,0.5617
2023-03-29T06:59:29.368Z,0.5683
2023-03-29T07:00:30.988Z,0.5617
2023-03-29T07:01:32.651Z,0.5518
2023-03-29T07:02:34.285Z,0.5503
2023-03-29T07:03:35.959Z,0.5379
2023-03-29T07:04:37.670Z,0.5422
2023-03-29T07:05:39.311Z,0.5491
2023-03-29T07:06:40.889Z,0.5551
2023-03-29T07:07:42.559Z,0.5725
2023-03-29T07:08:44.202Z,0.5732
2023-03-29T07:09:45.880Z,0.5664
2023-03-29T07:10:47.602Z,0.5649
2023-03-29T07:11:49.168Z,0.5751
2023-03-29T07:12:50.796Z,0.5779
2023-03-29T07:13:52.490Z,0.5719
2023-03-29T07:14:54.147Z,0.5540
2023-03-29T07:15:55.838Z,0.5487
2023-03-29T07:16:57.445Z,0.5548
2023-03-29T07:17:59.181Z,0.5685
2023-03-29T07:19:00.738Z,0.5654
2023-03-29T07:20:02.499Z,0.5529
2023-03-29T07:21:04.154Z,0.5595
2023-03-29T07:22:05.708Z,0.5576
2023-03-29T07:23:07.370Z,0.5630
2023-03-29T07:24:09.007Z,0.5697
2023-03-29T07:25:10.693Z,0.5757
2023-03-29T07:26:12.323Z,0.5878
2023-03-29T07:27:13.977Z,0.5869
2023-03-29T07:28:15.670Z,0.5911
2023-03-29T07:29:17.288Z,0.5815
2023-03-29T07:30:18.942Z,0.5721
2023-03-29T07:31:20.558Z,0.5733
2023-03-29T07:32:22.497Z,0.5841
2023-03-29T07:33:23.998Z,0.5742
2023-03-29T07:34:25.540Z,0.5679
2023-03-29T07:35:27.189Z,0.5639
2023-03-29T07:36:28.870Z,0.5737
2023-03-29T07:37:30.493Z,0.5676
2023-03-29T07:38:32.179Z,0.5637
2023-03-29T07:39:33.797Z,0.5597
2023-03-29T07:40:35.476Z,0.5771
2023-03-29T07:41:37.099Z,0.5881
2023-03-29T07:42:38.792Z,0.5859
2023-03-29T07:43:40.422Z,0.5783
2023-03-29T07:44:42.097Z,0.5743
2023-03-29T07:45:43.743Z,0.5794
2023-03-29T07:46:45.412Z,0.5640
2023-03-29T07:47:47.032Z,0.5585
2023-03-29T07:48:48.696Z,0.5605
2023-03-29T07:49:50.330Z,0.5461
2023-03-29T07:50:52.048Z,0.5460
2023-03-29T07:51:53.635Z,0.5400
2023-03-29T07:52:55.286Z,0.5485
2023-03-29T07:53:56.958Z,0.5452
2023-03-29T07:54:58.589Z,0.5361
2023-03-29T07:56:00.270Z,0.5119
2023-03-29T07:57:01.978Z,0.5081
2023-03-29T07:58:03.548Z,0.5056
2023-03-29T07:59:05.221Z,0.5025
2023-03-29T08:00:06.856Z,0.5066
2023-03-29T08:01:08.639Z,0.5111
2023-03-29T08:02:10.161Z,0.5133
2023-03-29T08:03:11.895Z,0.5192
2023-03-29T08:04:13.534Z,0.5226
2023-03-29T08:05:17.476Z,0.5239
2023-03-29T08:06:16.838Z,0.5199
2023-03-29T08:07:18.967Z,0.5096
2023-03-29T08:08:20.078Z,0.5024
2023-03-29T08:09:21.766Z,0.5010
2023-03-29T08:10:23.384Z,0.4974
2023-03-29T08:11:25.074Z,0.5060
2023-03-29T08:12:26.700Z,0.5059
2023-03-29T08:13:28.362Z,0.5004
2023-03-29T08:14:30.009Z,0.5014
2023-03-29T08:15:31.667Z,0.5154
2023-03-29T08:16:33.406Z,0.5204
2023-03-29T08:17:35.082Z,0.5353
2023-03-29T08:18:36.737Z,0.5402
2023-03-29T08:19:38.290Z,0.5295
2023-03-29T08:20:39.919Z,0.5252
2023-03-29T08:21:41.619Z,0.5274
2023-03-29T08:22:43.228Z,0.5349
2023-03-29T08:23:44.918Z,0.5338
2023-03-29T08:24:46.547Z,0.5376
2023-03-29T08:25:48.247Z,0.5402
2023-03-29T08:26:49.883Z,0.5315
2023-03-29T08:27:51.520Z,0.5248
2023-03-29T08:28:53.157Z,0.5223
2023-03-29T08:29:54.836Z,0.5213
2023-03-29T08:30:56.485Z,0.5100
2023-03-29T08:31:58.159Z,0.5035
2023-03-29T08:32:59.787Z,0.5044
2023-03-29T08:34:01.437Z,0.5192
2023-03-29T08:35:03.078Z,0.5110
2023-03-29T08:36:04.780Z,0.5161
2023-03-29T08:37:06.414Z,0.5133
2023-03-29T08:38:08.067Z,0.5015
2023-03-29T08:39:09.686Z,0.5012
2023-03-29T08:40:11.363Z,0.5058
2023-03-29T08:41:13.000Z,0.4974
2023-03-29T08:42:14.689Z,0.5027
2023-03-29T08:43:16.287Z,0.5022
2023-03-29T08:44:17.974Z,0.5065
2023-03-29T08:45:19.646Z,0.5114
2023-03-29T08:46:21.346Z,0.5077
2023-03-29T08:47:22.933Z,0.5093
2023-03-29T08:48:24.573Z,0.5132
2023-03-29T08:49:26.251Z,0.5115
2023-03-29T08:50:27.888Z,0.5047
2023-03-29T08:51:29.532Z,0.5034
2023-03-29T08:52:31.290Z,0.5086
2023-03-29T08:53:32.858Z,0.5051
2023-03-29T08:54:34.517Z,0.5023
2023-03-29T08:55:36.145Z,0.5120
2023-03-29T08:56:37.835Z,0.5237
2023-03-29T08:57:39.559Z,0.5226
2023-03-29T08:58:41.134Z,0.5316
2023-03-29T08:59:42.743Z,0.5438
2023-03-29T09:00:44.431Z,0.5362
2023-03-29T09:01:48.447Z,0.5309
2023-03-29T09:02:47.829Z,0.5332
2023-03-29T09:03:49.473Z,0.5305
2023-03-29T09:04:51.013Z,0.5318
2023-03-29T09:05:52.649Z,0.5318
2023-03-29T09:06:54.339Z,0.5366
2023-03-29T09:07:55.976Z,0.5433
2023-03-29T09:08:57.633Z,0.5521
2023-03-29T09:09:59.263Z,0.5474
2023-03-29T09:11:01.091Z,0.5504
2023-03-29T09:12:02.570Z,0.5581
2023-03-29T09:13:04.299Z,0.5641
2023-03-29T09:14:05.879Z,0.5719
2023-03-29T09:15:07.549Z,0.5776
2023-03-29T09:16:09.173Z,0.5709
2023-03-29T09:17:10.868Z,0.5740
2023-03-29T09:18:12.556Z,0.5940
2023-03-29T09:19:14.172Z,0.6072
2023-03-29T09:20:15.802Z,0.6192
2023-03-29T09:21:17.462Z,0.6194
2023-03-29T09:22:20.078Z,0.6123
2023-03-29T09:23:20.793Z,0.6092
2023-03-29T09:24:22.423Z,0.6178
2023-03-29T09:25:24.097Z,0.6235
2023-03-29T09:26:25.740Z,0.6283
2023-03-29T09:27:27.393Z,0.6350
2023-03-29T09:28:29.049Z,0.6418
2023-03-29T09:29:30.703Z,0.6189
2023-03-29T09:30:32.360Z,0.6099
2023-03-29T09:31:34.042Z,0.6025
2023-03-29T09:32:35.706Z,0.5808
2023-03-29T09:33:37.406Z,0.5800
2023-03-29T09:34:38.970Z,0.5766
2023-03-29T09:35:40.640Z,0.5813
2023-03-29T09:36:42.269Z,0.5805
2023-03-29T09:37:43.934Z,0.5890
2023-03-29T09:38:45.604Z,0.5857
2023-03-29T09:39:47.267Z,0.5884
2023-03-29T09:40:48.900Z,0.5966
2023-03-29T09:41:50.545Z,0.6045
2023-03-29T09:42:52.331Z,0.6039
2023-03-29T09:43:53.896Z,0.6068
2023-03-29T09:44:55.489Z,0.6001
2023-03-29T09:45:57.238Z,0.5957
2023-03-29T09:46:58.857Z,0.5879
2023-03-29T09:48:00.572Z,0.5763
2023-03-29T09:49:02.169Z,0.5760
2023-03-29T09:50:03.799Z,0.5769
2023-03-29T09:51:05.431Z,0.5756
2023-03-29T09:52:07.075Z,0.5665
2023-03-29T09:53:08.726Z,0.5570
2023-03-29T09:54:10.436Z,0.5551
2023-03-29T09:55:12.030Z,0.5425
2023-03-29T09:56:13.699Z,0.5401
2023-03-29T09:57:15.415Z,0.5397
2023-03-29T09:58:17.026Z,0.5404
2023-03-29T09:59:18.691Z,0.5446
2023-03-29T10:00:20.313Z,0.5379
2023-03-29T10:01:21.949Z,0.5410
2023-03-29T10:02:23.628Z,0.5441
2023-03-29T10:03:25.241Z,0.5468
2023-03-29T10:04:26.992Z,0.5552
2023-03-29T10:05:28.548Z,0.5575
2023-03-29T10:06:30.215Z,0.5553
2023-03-29T10:07:31.852Z,0.5499
2023-03-29T10:08:33.578Z,0.5519
2023-03-29T10:09:35.200Z,0.5543
2023-03-29T10:10:36.889Z,0.5563
2023-03-29T10:11:38.498Z,0.5672
2023-03-29T10:12:40.138Z,0.5720
2023-03-29T10:13:41.777Z,0.5704
2023-03-29T10:14:43.468Z,0.5625
2023-03-29T10:15:45.103Z,0.5527
2023-03-29T10:16:46.874Z,0.5510
2023-03-29T10:17:48.467Z,0.5583
2023-03-29T10:18:50.061Z,0.5596
2023-03-29T10:19:51.741Z,0.5700
2023-03-29T10:20:53.384Z,0.5745
2023-03-29T10:21:55.023Z,0.5858
2023-03-29T10:22:56.674Z,0.5817
2023-03-29T10:23:58.304Z,0.5724
2023-03-29T10:25:00.031Z,0.5775
2023-03-29T10:26:01.625Z,0.5721
2023-03-29T10:27:03.290Z,0.5684
2023-03-29T10:28:04.935Z,0.5864
2023-03-29T10:29:06.594Z,0.6631
2023-03-29T10:30:08.253Z,0.7143
2023-03-29T10:31:09.928Z,0.6822
2023-03-29T10:32:11.574Z,0.6987
2023-03-29T10:33:13.219Z,0.7015
2023-03-29T10:34:14.830Z,0.7347
2023-03-29T10:35:16.536Z,0.7640
2023-03-29T10:36:18.156Z,0.7317
2023-03-29T10:37:19.818Z,0.7215
2023-03-29T10:38:21.486Z,0.7150
2023-03-29T10:39:23.112Z,0.7159
2023-03-29T10:40:24.787Z,0.6913
2023-03-29T10:41:26.414Z,0.6964
2023-03-29T10:42:28.047Z,0.7168
2023-03-29T10:43:29.799Z,0.7262
2023-03-29T10:44:33.174Z,0.7255
2023-03-29T10:45:33.073Z,0.7014
2023-03-29T10:46:34.789Z,0.6728
2023-03-29T10:47:36.361Z,0.6464
2023-03-29T10:48:38.023Z,0.6589
2023-03-29T10:49:39.656Z,0.6561
2023-03-29T10:50:41.367Z,0.6523
2023-03-29T10:51:43.018Z,0.6766
2023-03-29T10:52:44.650Z,0.6716
2023-03-29T10:53:46.325Z,0.6639
2023-03-29T10:54:47.956Z,0.6676
2023-03-29T10:55:49.657Z,0.6638
2023-03-29T10:56:52.558Z,0.6468
2023-03-29T10:57:52.925Z,0.6318
2023-03-29T10:58:54.574Z,0.6388
2023-03-29T10:59:56.218Z,0.6495
2023-03-29T11:00:57.875Z,0.6675
2023-03-29T11:01:59.561Z,0.6917
2023-03-29T11:03:01.217Z,0.6735
2023-03-29T11:04:02.909Z,0.6524
2023-03-29T11:05:04.441Z,0.6140
2023-03-29T11:06:06.141Z,0.5906
2023-03-29T11:07:07.751Z,0.5753
2023-03-29T11:08:09.439Z,0.5679
2023-03-29T11:09:11.054Z,0.5764
2023-03-29T11:10:12.738Z,0.5775
2023-03-29T11:11:14.406Z,0.5657
2023-03-29T11:12:16.659Z,0.5763
2023-03-29T11:13:17.694Z,0.6037
2023-03-29T11:14:19.331Z,0.6151
2023-03-29T11:15:20.950Z,0.6279
2023-03-29T11:16:22.906Z,0.6572
2023-03-29T11:17:24.275Z,0.6412
2023-03-29T11:18:25.929Z,0.6414
2023-03-29T11:19:27.574Z,0.6327
2023-03-29T11:20:29.241Z,0.6372
2023-03-29T11:21:30.897Z,0.6321
2023-03-29T11:22:32.560Z,0.6037
2023-03-29T11:23:34.196Z,0.6157
2023-03-29T11:24:35.875Z,0.6213
2023-03-29T11:25:37.478Z,0.6215
2023-03-29T11:26:39.203Z,0.6405
2023-03-29T11:27:40.787Z,0.6504
2023-03-29T11:28:42.468Z,0.6484
2023-03-29T11:29:44.126Z,0.6451
2023-03-29T11:30:45.798Z,0.6456
2023-03-29T11:31:47.508Z,0.6572
2023-03-29T11:32:49.086Z,0.6570
2023-03-29T11:33:50.713Z,0.6618
2023-03-29T11:34:52.384Z,0.6468
2023-03-29T11:35:54.064Z,0.6530
2023-03-29T11:36:55.727Z,0.6521
2023-03-29T11:37:57.313Z,0.6277
2023-03-29T11:38:58.968Z,0.6243
2023-03-29T11:40:00.611Z,0.6023
2023-03-29T11:41:02.596Z,0.6053
2023-03-29T11:42:03.935Z,0.6185
2023-03-29T11:43:05.576Z,0.6216
2023-03-29T11:44:07.236Z,0.6190
2023-03-29T11:45:08.874Z,0.6255
2023-03-29T11:46:10.523Z,0.6263
2023-03-29T11:47:12.233Z,0.6131
2023-03-29T11:48:13.821Z,0.6049
2023-03-29T11:49:15.489Z,0.6096
2023-03-29T11:50:17.142Z,0.6054
2023-03-29T11:51:18.791Z,0.6087
2023-03-29T11:52:20.468Z,0.5981
2023-03-29T11:53:22.080Z,0.6122
2023-03-29T11:54:23.758Z,0.6192
2023-03-29T11:55:25.398Z,0.6262
2023-03-29T11:56:27.042Z,0.6232
2023-03-29T11:57:28.861Z,0.6168
2023-03-29T11:58:30.344Z,0.6049
2023-03-29T11:59:31.992Z,0.5884
2023-03-29T12:00:33.659Z,0.5877
2023-03-29T12:01:35.299Z,0.5887
2023-03-29T12:02:37.105Z,0.6027
2023-03-29T12:03:38.797Z,0.6156
2023-03-29T12:04:40.297Z,0.6155
2023-03-29T12:05:41.894Z,0.5986
2023-03-29T12:06:43.578Z,0.5853
2023-03-29T12:07:45.237Z,0.5849
2023-03-29T12:08:46.900Z,0.5873
2023-03-29T12:09:48.516Z,0.5897
2023-03-29T12:10:50.192Z,0.6031
2023-03-29T12:11:51.827Z,0.5879
2023-03-29T12:12:53.548Z,0.5934
2023-03-29T12:13:55.148Z,0.5971
2023-03-29T12:14:57.125Z,0.6097
2023-03-29T12:15:58.454Z,0.6187
2023-03-29T12:17:00.158Z,0.6116
2023-03-29T12:18:01.801Z,0.5960
2023-03-29T12:19:03.411Z,0.6042
2023-03-29T12:20:05.077Z,0.6056
2023-03-29T12:21:06.877Z,0.5958
2023-03-29T12:22:08.363Z,0.5882
2023-03-29T12:23:10.071Z,0.5984
2023-03-29T12:24:11.688Z,0.6058
2023-03-29T12:25:14.312Z,0.5965
2023-03-29T12:26:14.987Z,0.5913
2023-03-29T12:27:16.692Z,0.5958
2023-03-29T12:28:18.328Z,0.6019
2023-03-29T12:29:19.976Z,0.6062
2023-03-29T12:30:21.616Z,0.6297
2023-03-29T12:31:23.294Z,0.6325
2023-03-29T12:32:24.978Z,0.6119
2023-03-29T12:33:26.629Z,0.6141
2023-03-29T12:34:28.270Z,0.6290
2023-03-29T12:35:29.913Z,0.6151
2023-03-29T12:36:31.558Z,0.6048
2023-03-29T12:37:33.228Z,0.6074
2023-03-29T12:38:34.890Z,0.6084
2023-03-29T12:39:36.530Z,0.5998
2023-03-29T12:40:38.216Z,0.5927
2023-03-29T12:41:39.855Z,0.5801
2023-03-29T12:42:41.488Z,0.5779
2023-03-29T12:43:43.176Z,0.5730
2023-03-29T12:44:44.793Z,0.5801
2023-03-29T12:45:46.502Z,0.5901
2023-03-29T12:46:48.137Z,0.5762
2023-03-29T12:47:49.818Z,0.5747
2023-03-29T12:48:51.477Z,0.5762